Time;durP1;ratioP1;P1;durP2;ratioP2;P2;SDS_P1;SDS_P2;PMS_P1;PMS_P2;Temp;Humidity;BMP_temperature;BMP_pressure;BME280_temperature;BME280_humidity;BME280_pressure;Samples;Min_cycle;Max_cycle;Signal;HPM_P1;HPM_P2
2023/07/10 00:00:58;;;;;;;49.30;46.22;;;22.20;99.90;;;;;;5027724;28;19913;-75
2023/07/10 00:03:24;;;;;;;46.35;43.22;;;22.30;99.90;;;;;;5013616;28;20034;-75
2023/07/10 00:05:50;;;;;;;42.17;39.05;;;22.20;99.90;;;;;;5012212;28;20407;-75
2023/07/10 00:08:17;;;;;;;41.67;38.30;;;22.20;99.90;;;;;;5013786;28;20034;-75
2023/07/10 00:10:43;;;;;;;43.35;40.25;;;22.30;99.90;;;;;;5013204;28;20053;-75
2023/07/10 00:13:11;;;;;;;44.95;41.75;;;22.30;99.90;;;;;;5013609;28;20018;-75
2023/07/10 00:15:37;;;;;;;40.00;36.40;;;22.20;99.90;;;;;;5007203;28;20026;-75
2023/07/10 00:18:08;;;;;;;44.10;40.83;;;22.20;99.90;;;;;;5024601;28;20045;-75
2023/07/10 00:20:34;;;;;;;45.78;42.38;;;22.20;99.90;;;;;;5008326;28;20377;-75
2023/07/10 00:23:00;;;;;;;68.32;64.22;;;22.10;99.90;;;;;;4993734;28;20030;-74
2023/07/10 00:25:27;;;;;;;83.15;78.25;;;22.00;99.90;;;;;;4993408;28;20391;-75
2023/07/10 00:27:53;;;;;;;72.70;68.15;;;22.00;99.90;;;;;;5008861;28;20034;-75
2023/07/10 00:30:21;;;;;;;75.43;70.93;;;22.00;99.90;;;;;;5027347;28;20392;-75
2023/07/10 00:32:52;;;;;;;79.68;74.55;;;22.00;99.90;;;;;;5013096;28;20033;-75
2023/07/10 00:35:22;;;;;;;66.93;62.83;;;22.00;99.90;;;;;;5027518;28;20030;-75
2023/07/10 00:38:01;;;;;;;57.73;53.90;;;21.80;99.90;;;;;;5028117;28;20037;-75
2023/07/10 00:40:31;;;;;;;88.80;83.28;;;21.70;99.90;;;;;;5043046;28;20041;-75
2023/07/10 00:43:20;;;;;;;69.47;65.20;;;21.70;99.90;;;;;;5013185;28;20459;-75
2023/07/10 00:45:48;;;;;;;45.53;42.17;;;21.70;99.90;;;;;;5025199;28;20285;-75
2023/07/10 00:48:36;;;;;;;48.80;45.95;;;21.70;99.90;;;;;;5027812;28;20022;-75
2023/07/10 00:51:06;;;;;;;66.88;62.88;;;21.80;99.90;;;;;;5011488;28;20483;-75
2023/07/10 00:53:34;;;;;;;55.05;51.58;;;21.70;99.90;;;;;;5027749;28;20045;-75
2023/07/10 00:56:00;;;;;;;47.35;43.97;;;21.70;99.90;;;;;;5027524;28;20034;-75
2023/07/10 00:58:37;;;;;;;38.75;35.83;;;21.80;99.90;;;;;;5012952;28;20060;-75
2023/07/10 01:01:10;;;;;;;29.55;27.00;;;21.70;99.90;;;;;;5026537;28;20030;-75
2023/07/10 01:03:38;;;;;;;26.17;23.80;;;21.60;99.90;;;;;;5012667;28;20036;-75
2023/07/10 01:06:13;;;;;;;19.50;17.60;;;21.60;99.90;;;;;;5027465;28;20034;-75
2023/07/10 01:08:40;;;;;;;18.90;17.30;;;21.60;99.90;;;;;;5028007;28;20022;-75
2023/07/10 01:11:06;;;;;;;20.27;15.13;;;21.60;99.90;;;;;;5010301;28;20038;-74
2023/07/10 01:13:32;;;;;;;17.40;12.93;;;21.50;99.90;;;;;;5012782;28;20081;-74
2023/07/10 01:15:58;;;;;;;16.98;13.45;;;21.50;99.90;;;;;;5026419;28;20402;-74
2023/07/10 01:18:25;;;;;;;15.57;13.63;;;21.50;99.90;;;;;;5027781;28;20041;-74
2023/07/10 01:21:18;;;;;;;17.00;11.07;;;21.50;99.90;;;;;;5027583;28;20386;-75
2023/07/10 01:23:44;;;;;;;17.23;9.18;;;21.50;99.90;;;;;;5025064;28;20029;-75
2023/07/10 01:26:10;;;;;;;14.30;10.27;;;21.40;99.90;;;;;;5012210;28;20479;-75
2023/07/10 01:28:36;;;;;;;14.73;11.10;;;21.40;99.90;;;;;;5011601;28;20042;-75
2023/07/10 01:31:05;;;;;;;13.18;10.60;;;21.40;99.90;;;;;;5011465;28;20438;-75
2023/07/10 01:33:47;;;;;;;16.60;12.88;;;21.40;99.90;;;;;;5027486;28;20644;-75
2023/07/10 01:36:15;;;;;;;13.98;10.90;;;21.30;99.90;;;;;;5025456;28;20475;-75
2023/07/10 01:39:10;;;;;;;18.83;13.63;;;21.30;99.90;;;;;;5027489;28;20038;-75
2023/07/10 01:41:39;;;;;;;16.88;13.00;;;21.30;99.90;;;;;;5005861;28;20507;-75
2023/07/10 01:44:26;;;;;;;23.48;16.58;;;21.40;99.90;;;;;;5027409;28;20052;-75
2023/07/10 01:46:52;;;;;;;20.52;18.35;;;21.30;99.90;;;;;;5026720;28;20246;-75
2023/07/10 01:49:21;;;;;;;23.58;21.60;;;21.20;99.90;;;;;;5027441;28;20030;-74
2023/07/10 01:51:47;;;;;;;20.73;18.42;;;21.20;99.90;;;;;;5010779;28;20038;-75
2023/07/10 01:54:14;;;;;;;19.15;17.50;;;21.10;99.90;;;;;;5027524;28;20055;-75
2023/07/10 01:56:41;;;;;;;19.13;17.33;;;21.10;99.90;;;;;;5027224;28;20034;-75
2023/07/10 01:59:07;;;;;;;17.00;15.25;;;21.10;99.90;;;;;;5026683;28;20364;-75
2023/07/10 02:01:33;;;;;;;19.98;16.20;;;21.00;99.90;;;;;;5022284;28;20034;-75
2023/07/10 02:03:59;;;;;;;17.90;14.95;;;21.00;99.90;;;;;;5018921;28;20505;-75
2023/07/10 02:06:26;;;;;;;20.88;17.50;;;21.00;99.90;;;;;;5025594;28;20049;-75
2023/07/10 02:08:52;;;;;;;19.67;14.00;;;21.00;99.90;;;;;;5010977;28;20026;-75
2023/07/10 02:11:18;;;;;;;23.77;21.58;;;20.90;99.90;;;;;;5010757;28;20040;-74
2023/07/10 02:13:45;;;;;;;16.30;12.85;;;20.90;99.90;;;;;;5025862;28;20029;-75
2023/07/10 02:16:12;;;;;;;15.35;13.88;;;20.90;99.90;;;;;;5010044;28;20368;-75
2023/07/10 02:18:38;;;;;;;18.75;13.02;;;20.90;99.90;;;;;;5026013;28;20033;-75
2023/07/10 02:21:04;;;;;;;15.13;13.43;;;21.00;99.90;;;;;;5010428;28;20033;-75
2023/07/10 02:23:30;;;;;;;15.65;14.07;;;20.90;99.90;;;;;;5012999;28;20026;-75
2023/07/10 02:25:56;;;;;;;15.90;13.65;;;20.90;99.90;;;;;;5013837;28;20052;-75
2023/07/10 02:28:22;;;;;;;16.83;15.13;;;20.90;99.90;;;;;;5014162;28;20029;-75
2023/07/10 02:30:49;;;;;;;18.02;15.73;;;20.80;99.90;;;;;;5013519;28;20038;-75
2023/07/10 02:33:15;;;;;;;17.58;14.57;;;20.80;99.90;;;;;;5014258;28;20037;-75
2023/07/10 02:35:41;;;;;;;16.73;14.98;;;20.70;99.90;;;;;;5013737;28;20026;-74
2023/07/10 02:38:07;;;;;;;14.85;13.60;;;20.70;99.90;;;;;;5015510;28;20034;-75
2023/07/10 02:40:34;;;;;;;13.55;10.80;;;20.70;99.90;;;;;;5046826;28;20018;-75
2023/07/10 02:43:00;;;;;;;18.00;11.02;;;20.60;99.90;;;;;;5014988;28;20394;-74
2023/07/10 02:45:26;;;;;;;15.90;9.68;;;20.60;99.90;;;;;;5014517;28;20033;-74
2023/07/10 02:47:52;;;;;;;13.10;10.77;;;20.60;99.90;;;;;;5013815;28;20034;-75
2023/07/10 02:50:18;;;;;;;14.32;9.75;;;20.60;99.90;;;;;;5014874;28;20048;-75
2023/07/10 02:52:44;;;;;;;14.90;11.50;;;20.50;99.90;;;;;;5013907;28;20030;-75
2023/07/10 02:55:11;;;;;;;13.10;10.10;;;20.50;99.90;;;;;;5030077;28;20030;-75
2023/07/10 02:57:37;;;;;;;14.52;10.90;;;20.50;99.90;;;;;;5015078;28;20045;-74
2023/07/10 03:00:03;;;;;;;17.50;15.88;;;20.50;99.90;;;;;;5014564;28;20033;-72
2023/07/10 03:02:30;;;;;;;18.85;17.17;;;20.50;99.90;;;;;;5029804;28;20048;-75
2023/07/10 03:04:56;;;;;;;25.77;23.63;;;20.50;99.90;;;;;;5030128;28;20030;-75
2023/07/10 03:07:22;;;;;;;21.27;19.40;;;20.50;99.90;;;;;;5014579;28;20026;-75
2023/07/10 03:09:49;;;;;;;19.90;18.13;;;20.50;99.90;;;;;;5014758;28;20036;-75
2023/07/10 03:12:15;;;;;;;18.75;17.30;;;20.40;99.90;;;;;;5014311;28;20030;-75
2023/07/10 03:14:41;;;;;;;13.55;11.75;;;20.50;99.90;;;;;;5029926;28;20037;-75
2023/07/10 03:17:07;;;;;;;16.67;12.60;;;20.40;99.90;;;;;;5029081;28;20049;-75
2023/07/10 03:19:34;;;;;;;28.25;26.10;;;20.40;99.90;;;;;;5014669;28;20498;-75
2023/07/10 03:22:00;;;;;;;16.42;14.52;;;20.40;99.90;;;;;;5029647;28;20540;-75
2023/07/10 03:24:26;;;;;;;18.42;16.55;;;20.30;99.90;;;;;;5014605;28;20026;-74
2023/07/10 03:26:52;;;;;;;14.00;12.52;;;20.30;99.90;;;;;;5029263;28;20383;-75
2023/07/10 03:29:18;;;;;;;15.52;11.02;;;20.30;99.90;;;;;;5014505;28;20026;-75
2023/07/10 03:31:44;;;;;;;16.58;10.70;;;20.30;99.90;;;;;;5029049;28;20033;-75
2023/07/10 03:34:13;;;;;;;12.70;9.00;;;20.20;99.90;;;;;;5013340;28;20026;-75
2023/07/10 03:36:39;;;;;;;13.57;7.38;;;20.20;99.90;;;;;;5014035;28;20048;-75
2023/07/10 03:39:06;;;;;;;10.13;6.80;;;20.20;99.90;;;;;;5029664;28;20034;-75
2023/07/10 03:41:32;;;;;;;12.45;6.30;;;20.30;99.90;;;;;;5028782;28;20038;-75
2023/07/10 03:43:59;;;;;;;9.00;6.90;;;20.30;99.90;;;;;;5014209;28;20026;-75
2023/07/10 03:46:25;;;;;;;10.98;6.68;;;20.10;99.90;;;;;;5013563;28;20046;-75
2023/07/10 03:48:51;;;;;;;14.35;7.80;;;20.00;99.90;;;;;;5013989;28;20487;-75
2023/07/10 03:51:17;;;;;;;15.57;8.00;;;19.80;99.90;;;;;;5045293;28;20052;-75
2023/07/10 03:53:43;;;;;;;11.88;7.85;;;19.80;99.90;;;;;;5013921;28;20510;-74
2023/07/10 03:56:10;;;;;;;14.23;8.57;;;19.60;99.90;;;;;;5013731;28;20049;-75
2023/07/10 03:58:41;;;;;;;14.13;7.60;;;19.70;99.90;;;;;;5029157;28;20056;-75
2023/07/10 04:01:07;;;;;;;;;;;19.60;99.90;;;;;;5028261;28;20038;-75
2023/07/10 04:03:34;;;;;;;14.07;7.10;;;19.60;99.90;;;;;;5045736;28;19912;-75
2023/07/10 04:06:01;;;;;;;12.30;7.82;;;19.50;99.90;;;;;;5028569;28;20033;-75
2023/07/10 04:08:32;;;;;;;14.00;7.28;;;19.60;99.90;;;;;;5029188;28;20033;-75
2023/07/10 04:11:04;;;;;;;18.17;10.20;;;19.60;99.90;;;;;;5028412;28;20026;-75
2023/07/10 04:13:30;;;;;;;14.27;8.30;;;19.50;99.90;;;;;;5045712;28;20036;-75
2023/07/10 04:16:00;;;;;;;14.98;8.27;;;19.40;99.90;;;;;;5027883;28;20030;-75
2023/07/10 04:18:36;;;;;;;13.33;6.43;;;19.30;99.90;;;;;;5028887;28;20375;-75
2023/07/10 04:21:04;;;;;;;12.88;6.65;;;19.30;99.90;;;;;;5027144;28;20277;-75
2023/07/10 04:23:30;;;;;;;13.85;7.22;;;19.20;99.90;;;;;;5028722;28;20029;-75
2023/07/10 04:25:56;;;;;;;12.55;5.97;;;19.20;99.90;;;;;;5012735;28;20049;-75
2023/07/10 04:28:23;;;;;;;13.35;6.32;;;19.20;99.90;;;;;;5012331;28;20371;-75
2023/07/10 04:30:49;;;;;;;12.80;6.20;;;19.20;99.90;;;;;;5011771;28;20025;-75
2023/07/10 04:33:15;;;;;;;18.42;6.68;;;19.00;99.90;;;;;;5012411;28;20471;-75
2023/07/10 04:35:43;;;;;;;14.18;5.65;;;19.10;99.90;;;;;;5011808;28;20033;-74
2023/07/10 04:38:09;;;;;;;10.75;5.70;;;19.30;99.90;;;;;;5028475;28;20033;-75
2023/07/10 04:40:35;;;;;;;11.68;5.95;;;19.30;99.90;;;;;;5017577;28;20030;-75
2023/07/10 04:43:04;;;;;;;11.88;5.97;;;19.40;99.90;;;;;;4995681;28;20041;-75
2023/07/10 04:45:31;;;;;;;14.48;5.68;;;19.50;99.90;;;;;;5010894;28;20037;-75
2023/07/10 04:47:57;;;;;;;12.73;5.82;;;19.60;99.90;;;;;;5012990;28;20030;-75
2023/07/10 04:50:23;;;;;;;14.40;6.85;;;19.60;99.90;;;;;;5012674;28;20062;-75
2023/07/10 04:52:49;;;;;;;13.57;6.30;;;19.60;99.90;;;;;;5012783;28;20038;-75
2023/07/10 04:55:15;;;;;;;14.18;6.75;;;19.60;99.90;;;;;;5013057;28;20364;-75
2023/07/10 04:57:41;;;;;;;11.73;6.60;;;19.60;99.90;;;;;;5013054;28;20034;-74
2023/07/10 05:00:08;;;;;;;10.68;6.63;;;19.70;99.90;;;;;;5011257;28;20029;-75
2023/07/10 05:02:34;;;;;;;12.27;6.78;;;19.60;99.90;;;;;;5012707;28;20041;-75
2023/07/10 05:05:00;;;;;;;13.48;7.20;;;19.50;99.90;;;;;;5012712;28;20383;-74
2023/07/10 05:07:26;;;;;;;12.82;6.85;;;19.60;99.90;;;;;;5012087;28;20042;-75
2023/07/10 05:09:52;;;;;;;11.38;6.72;;;19.60;99.90;;;;;;5013121;28;20387;-75
2023/07/10 05:12:18;;;;;;;12.60;7.80;;;19.70;99.90;;;;;;5012354;28;20025;-75
2023/07/10 05:14:45;;;;;;;9.88;7.50;;;19.80;99.90;;;;;;5012742;28;20356;-75
2023/07/10 05:17:11;;;;;;;12.38;8.50;;;19.80;99.90;;;;;;5010742;28;20041;-75
2023/07/10 05:19:37;;;;;;;16.05;8.38;;;19.90;99.90;;;;;;4995124;28;20612;-75
2023/07/10 05:22:03;;;;;;;18.52;9.07;;;20.00;99.90;;;;;;5012095;28;20029;-75
2023/07/10 05:24:29;;;;;;;16.73;11.10;;;20.10;99.90;;;;;;5011466;28;20037;-75
2023/07/10 05:26:55;;;;;;;14.90;9.48;;;20.00;99.90;;;;;;5012258;28;20509;-75
2023/07/10 05:29:21;;;;;;;15.70;10.27;;;20.10;99.90;;;;;;5012489;28;20030;-75
2023/07/10 05:31:47;;;;;;;12.77;9.02;;;20.10;99.90;;;;;;5026999;28;20498;-75
2023/07/10 05:34:15;;;;;;;17.08;10.57;;;20.10;99.90;;;;;;5012412;28;20034;-75
2023/07/10 05:36:41;;;;;;;13.48;12.07;;;20.20;99.90;;;;;;5026584;28;20045;-75
2023/07/10 05:39:07;;;;;;;14.00;11.70;;;20.10;99.90;;;;;;5027703;28;20033;-75
2023/07/10 05:41:34;;;;;;;16.65;11.15;;;20.00;99.90;;;;;;5012157;28;20035;-75
2023/07/10 05:44:01;;;;;;;14.88;10.07;;;19.80;99.90;;;;;;5012273;28;20037;-75
2023/07/10 05:46:27;;;;;;;15.18;9.88;;;19.70;99.90;;;;;;5011479;28;20052;-74
2023/07/10 05:48:55;;;;;;;11.70;9.50;;;19.60;99.90;;;;;;5012441;28;20022;-75
2023/07/10 05:51:21;;;;;;;17.38;9.45;;;19.50;99.90;;;;;;5011547;28;20065;-75
2023/07/10 05:53:47;;;;;;;15.10;9.05;;;19.50;99.90;;;;;;5012242;28;20052;-75
2023/07/10 05:56:13;;;;;;;14.60;9.23;;;19.50;99.90;;;;;;5010766;28;20026;-75
2023/07/10 05:58:40;;;;;;;18.98;10.82;;;19.70;99.90;;;;;;5014827;28;20041;-75
2023/07/10 06:01:06;;;;;;;13.60;9.73;;;19.80;99.90;;;;;;5030641;28;20034;-75
2023/07/10 06:03:33;;;;;;;13.63;9.88;;;19.60;99.90;;;;;;5014957;28;20085;-75
2023/07/10 06:06:03;;;;;;;13.63;10.13;;;19.80;99.90;;;;;;5014155;28;20033;-75
2023/07/10 06:08:30;;;;;;;13.05;10.10;;;20.00;99.90;;;;;;5030896;28;20033;-75
2023/07/10 06:10:56;;;;;;;12.20;10.30;;;20.10;99.90;;;;;;5030979;28;20037;-75
2023/07/10 06:13:22;;;;;;;12.63;10.75;;;20.30;99.90;;;;;;5031027;28;20029;-75
2023/07/10 06:15:50;;;;;;;14.98;10.55;;;20.20;99.90;;;;;;5030332;28;20061;-75
2023/07/10 06:18:17;;;;;;;19.83;10.93;;;20.30;99.90;;;;;;5031092;28;20026;-75
2023/07/10 06:20:43;;;;;;;14.65;11.02;;;20.40;99.90;;;;;;5015256;28;20035;-75
2023/07/10 06:23:09;;;;;;;15.50;11.35;;;20.40;99.90;;;;;;5030899;28;20034;-75
2023/07/10 06:25:35;;;;;;;16.83;12.48;;;20.40;99.90;;;;;;5030686;28;20048;-75
2023/07/10 06:28:01;;;;;;;13.07;11.73;;;20.60;99.90;;;;;;5031080;28;20052;-75
2023/07/10 06:30:27;;;;;;;15.52;12.98;;;20.40;99.90;;;;;;5010027;28;20042;-75
2023/07/10 06:32:55;;;;;;;15.68;13.52;;;20.60;99.90;;;;;;4995993;28;20482;-75
2023/07/10 06:35:22;;;;;;;17.77;12.95;;;20.60;99.90;;;;;;4995366;28;20045;-76
2023/07/10 06:37:48;;;;;;;15.85;12.52;;;20.60;99.90;;;;;;4995698;28;20026;-75
2023/07/10 06:40:15;;;;;;;17.13;12.50;;;20.40;99.90;;;;;;5005820;28;20057;-75
2023/07/10 06:42:41;;;;;;;16.85;12.68;;;20.50;99.90;;;;;;5027270;28;20487;-75
2023/07/10 06:45:09;;;;;;;16.95;12.20;;;20.70;99.90;;;;;;4994912;28;20039;-74
2023/07/10 06:47:41;;;;;;;19.02;11.63;;;21.00;99.90;;;;;;4995265;28;20054;-76
2023/07/10 06:50:08;;;;;;;17.40;12.63;;;21.20;99.90;;;;;;5013765;28;20065;-76
2023/07/10 06:52:40;;;;;;;17.13;13.52;;;21.20;99.90;;;;;;5013901;28;20038;-75
2023/07/10 06:55:07;;;;;;;19.40;13.00;;;21.00;99.90;;;;;;5015074;28;20030;-75
2023/07/10 06:57:34;;;;;;;17.52;12.95;;;21.00;99.90;;;;;;5013986;28;20041;-76
2023/07/10 07:00:00;;;;;;;20.08;16.23;;;20.90;99.90;;;;;;5015084;28;20022;-76
2023/07/10 07:02:26;;;;;;;16.77;14.80;;;20.80;99.90;;;;;;5029358;28;20042;-75
2023/07/10 07:04:52;;;;;;;19.55;14.50;;;20.70;99.90;;;;;;5014666;28;20034;-75
2023/07/10 07:07:18;;;;;;;18.42;14.88;;;20.70;99.90;;;;;;5014500;28;20510;-75
2023/07/10 07:09:44;;;;;;;15.98;14.27;;;21.00;99.90;;;;;;5030219;28;20034;-75
2023/07/10 07:12:10;;;;;;;17.05;14.52;;;21.20;99.90;;;;;;5013287;28;20435;-75
2023/07/10 07:14:36;;;;;;;20.00;12.88;;;21.20;99.90;;;;;;5030063;28;20037;-75
2023/07/10 07:17:04;;;;;;;16.08;12.93;;;21.40;99.90;;;;;;5014063;28;20406;-75
2023/07/10 07:19:30;;;;;;;14.30;12.75;;;21.50;99.90;;;;;;5029531;28;20468;-75
2023/07/10 07:21:58;;;;;;;15.18;13.77;;;21.40;99.90;;;;;;5014495;28;20038;-75
2023/07/10 07:24:24;;;;;;;20.25;18.15;;;21.30;99.90;;;;;;5013714;28;20042;-75
2023/07/10 07:26:50;;;;;;;17.20;13.68;;;21.10;99.90;;;;;;5014276;28;20049;-75
2023/07/10 07:29:16;;;;;;;14.95;12.32;;;21.30;99.90;;;;;;5014479;28;20026;-75
2023/07/10 07:31:42;;;;;;;15.27;12.18;;;21.50;99.90;;;;;;5013761;28;20049;-75
2023/07/10 07:34:08;;;;;;;16.23;14.52;;;21.60;99.90;;;;;;5029437;28;20033;-75
2023/07/10 07:36:36;;;;;;;16.88;14.27;;;21.50;99.90;;;;;;5029293;28;20041;-75
2023/07/10 07:39:03;;;;;;;16.85;14.80;;;21.70;99.90;;;;;;5014405;28;20092;-75
2023/07/10 07:41:31;;;;;;;14.85;13.35;;;21.70;99.90;;;;;;5014133;28;20025;-75
2023/07/10 07:43:58;;;;;;;21.42;14.57;;;21.60;99.90;;;;;;5013989;28;20026;-75
2023/07/10 07:46:25;;;;;;;20.67;18.63;;;21.70;99.90;;;;;;5045633;28;20054;-75
2023/07/10 07:48:51;;;;;;;17.38;15.60;;;21.70;99.90;;;;;;5013855;28;20045;-75
2023/07/10 07:51:17;;;;;;;21.33;18.30;;;22.00;99.90;;;;;;5012650;28;20041;-76
2023/07/10 07:53:43;;;;;;;21.58;19.50;;;22.30;99.90;;;;;;5012678;28;20506;-75
2023/07/10 07:56:09;;;;;;;20.42;18.67;;;22.60;99.90;;;;;;5013784;28;20041;-75
2023/07/10 07:58:35;;;;;;;29.10;26.38;;;22.80;99.90;;;;;;5029276;28;20040;-75
2023/07/10 08:01:02;;;;;;;23.98;21.98;;;22.50;99.90;;;;;;5028593;28;20033;-75
2023/07/10 08:03:28;;;;;;;24.27;22.23;;;22.80;99.90;;;;;;5029192;28;20046;-75
2023/07/10 08:05:54;;;;;;;31.67;29.23;;;22.80;99.90;;;;;;5028728;28;20029;-75
2023/07/10 08:08:21;;;;;;;27.90;25.83;;;22.60;99.90;;;;;;5029234;28;20042;-75
2023/07/10 08:10:48;;;;;;;26.98;24.73;;;22.70;99.90;;;;;;5013507;28;20032;-75
2023/07/10 08:13:15;;;;;;;27.02;24.83;;;22.90;99.90;;;;;;5028949;28;20049;-75
2023/07/10 08:15:41;;;;;;;31.65;29.40;;;23.20;99.90;;;;;;5011519;28;20033;-75
2023/07/10 08:18:08;;;;;;;32.28;29.73;;;23.60;99.90;;;;;;5028632;28;20048;-75
2023/07/10 08:20:34;;;;;;;45.03;42.10;;;23.80;99.90;;;;;;5028006;28;20030;-76
2023/07/10 08:23:01;;;;;;;28.48;26.48;;;24.00;99.90;;;;;;5028958;28;20022;-76
2023/07/10 08:25:27;;;;;;;31.10;28.80;;;24.20;99.90;;;;;;5028329;28;20037;-76
2023/07/10 08:27:53;;;;;;;34.83;32.22;;;24.40;99.90;;;;;;5013430;28;20057;-75
2023/07/10 08:30:19;;;;;;;36.92;34.25;;;24.60;99.90;;;;;;5012359;28;20041;-75
2023/07/10 08:32:45;;;;;;;38.97;36.28;;;24.70;99.90;;;;;;5013466;28;20038;-75
2023/07/10 08:35:12;;;;;;;38.25;35.47;;;24.80;99.90;;;;;;5028514;28;20025;-75
2023/07/10 08:37:38;;;;;;;38.33;35.67;;;24.90;99.90;;;;;;5013270;28;20030;-75
2023/07/10 08:40:05;;;;;;;31.85;29.63;;;24.80;99.90;;;;;;5013283;28;20030;-75
2023/07/10 08:42:31;;;;;;;34.90;32.55;;;24.50;99.90;;;;;;5011758;28;20038;-75
2023/07/10 08:44:58;;;;;;;45.30;42.03;;;24.30;99.90;;;;;;5012787;28;20022;-75
2023/07/10 08:47:35;;;;;;;44.65;41.75;;;24.00;99.90;;;;;;5027392;28;20494;-75
2023/07/10 08:50:11;;;;;;;37.88;35.13;;;24.20;99.90;;;;;;5007028;28;20050;-75
2023/07/10 08:52:58;;;;;;;43.35;40.05;;;24.50;99.90;;;;;;4992266;28;20034;-75
2023/07/10 08:55:36;;;;;;;37.13;34.35;;;24.70;99.90;;;;;;5007588;28;20042;-75
2023/07/10 08:58:02;;;;;;;43.88;41.25;;;24.60;99.90;;;;;;5026985;28;20033;-75
2023/07/10 09:00:32;;;;;;;45.80;42.92;;;24.60;99.90;;;;;;5011930;28;20483;-75
2023/07/10 09:03:23;;;;;;;44.92;42.05;;;24.50;99.90;;;;;;5027872;28;20026;-75
2023/07/10 09:05:50;;;;;;;36.42;34.13;;;24.50;99.90;;;;;;5026413;28;20501;-75
2023/07/10 09:08:16;;;;;;;48.42;45.33;;;24.80;99.90;;;;;;5011896;28;20384;-75
2023/07/10 09:10:47;;;;;;;32.33;30.25;;;24.90;99.90;;;;;;5027791;28;20026;-75
2023/07/10 09:13:25;;;;;;;33.47;31.30;;;25.20;99.90;;;;;;5027805;28;20030;-75
2023/07/10 09:15:55;;;;;;;37.70;35.13;;;25.50;99.90;;;;;;5025473;28;20051;-75
2023/07/10 09:18:24;;;;;;;35.25;33.15;;;25.80;99.90;;;;;;5027497;28;20478;-75
2023/07/10 09:20:53;;;;;;;38.92;35.95;;;26.00;99.90;;;;;;5027472;28;20040;-75
2023/07/10 09:23:23;;;;;;;26.02;24.13;;;26.30;99.90;;;;;;5027751;28;20037;-75
2023/07/10 09:25:54;;;;;;;38.60;36.22;;;26.20;99.90;;;;;;5027433;28;20032;-75
2023/07/10 09:28:22;;;;;;;35.83;33.47;;;25.60;99.90;;;;;;5027573;28;20073;-75
2023/07/10 09:31:01;;;;;;;37.25;34.78;;;25.40;99.90;;;;;;5011862;28;20030;-75
2023/07/10 09:33:42;;;;;;;29.48;27.02;;;25.50;99.90;;;;;;5026848;28;20037;-75
2023/07/10 09:36:20;;;;;;;30.30;27.95;;;25.70;99.90;;;;;;5026596;28;20037;-75
2023/07/10 09:38:47;;;;;;;23.35;21.33;;;25.70;99.90;;;;;;5027130;28;20395;-75
2023/07/10 09:41:21;;;;;;;23.67;21.85;;;25.90;99.90;;;;;;5010682;28;20041;-75
2023/07/10 09:43:49;;;;;;;20.13;18.42;;;26.10;99.90;;;;;;5026811;28;20029;-74
2023/07/10 09:46:15;;;;;;;23.73;22.13;;;26.30;99.90;;;;;;5026986;28;20064;-76
2023/07/10 09:48:41;;;;;;;21.50;19.80;;;26.40;99.90;;;;;;5012304;28;20049;-76
2023/07/10 09:51:08;;;;;;;18.73;17.17;;;26.60;99.90;;;;;;5012031;28;20047;-76
2023/07/10 09:53:37;;;;;;;20.88;19.20;;;26.80;99.90;;;;;;5027429;28;20510;-76
2023/07/10 09:56:03;;;;;;;17.83;16.17;;;27.00;99.90;;;;;;5012551;28;20336;-76
2023/07/10 09:58:29;;;;;;;23.73;21.63;;;27.00;99.90;;;;;;5027197;28;20026;-75
2023/07/10 10:00:59;;;;;;;20.58;19.10;;;27.10;99.90;;;;;;5026971;28;20406;-75
2023/07/10 10:03:33;;;;;;;21.85;20.23;;;27.30;99.90;;;;;;5027262;28;20033;-75
2023/07/10 10:06:00;;;;;;;22.75;21.25;;;27.40;99.90;;;;;;5010743;28;20041;-75
2023/07/10 10:08:29;;;;;;;23.88;22.27;;;27.40;99.90;;;;;;5040374;28;20369;-75
2023/07/10 10:11:08;;;;;;;25.02;23.20;;;27.40;99.90;;;;;;5030073;28;20021;-75
2023/07/10 10:13:46;;;;;;;24.98;23.58;;;27.50;99.90;;;;;;5011934;28;20037;-75
2023/07/10 10:16:27;;;;;;;24.90;22.95;;;27.70;99.90;;;;;;5021511;28;20391;-75
2023/07/10 10:19:05;;;;;;;25.80;24.10;;;27.80;99.60;;;;;;5007973;28;20050;-76
2023/07/10 10:21:33;;;;;;;24.48;22.50;;;27.90;99.90;;;;;;5004093;28;20041;-75
2023/07/10 10:24:04;;;;;;;26.35;24.63;;;27.90;99.40;;;;;;5027204;28;20029;-75
2023/07/10 10:26:38;;;;;;;26.13;24.23;;;28.00;99.30;;;;;;5011401;28;20041;-77
2023/07/10 10:29:46;;;;;;;26.85;24.77;;;28.10;99.00;;;;;;5027030;28;20483;-75
2023/07/10 10:32:28;;;;;;;24.00;22.55;;;28.10;98.80;;;;;;5008049;28;20542;-75
2023/07/10 10:35:12;;;;;;;24.10;22.40;;;28.10;98.30;;;;;;4994401;28;20038;-75
2023/07/10 10:37:53;;;;;;;25.55;23.85;;;28.10;98.10;;;;;;5009849;28;20053;-76
2023/07/10 10:40:23;;;;;;;26.23;24.35;;;27.80;98.40;;;;;;5019374;28;20054;-75
2023/07/10 10:43:14;;;;;;;27.05;25.25;;;27.80;99.40;;;;;;4992979;28;20029;-76
2023/07/10 10:45:46;;;;;;;25.77;23.92;;;27.90;98.70;;;;;;4927013;29;20043;-75
2023/07/10 10:48:25;;;;;;;23.05;21.55;;;27.70;98.10;;;;;;4954477;29;20043;-75
2023/07/10 10:51:19;;;;;;;24.77;23.17;;;27.70;97.50;;;;;;4953258;28;20050;-75
2023/07/10 10:53:51;;;;;;;26.35;24.50;;;27.80;97.60;;;;;;4954677;29;20043;-75
2023/07/10 10:56:22;;;;;;;24.92;23.33;;;27.90;97.80;;;;;;4954324;29;20508;-76
2023/07/10 10:59:01;;;;;;;26.80;25.13;;;28.00;97.50;;;;;;4923154;29;20050;-76
2023/07/10 11:01:44;;;;;;;29.30;27.30;;;28.10;97.30;;;;;;4953947;29;20448;-76
2023/07/10 11:04:34;;;;;;;26.35;24.65;;;28.20;97.20;;;;;;4954657;29;20035;-77
2023/07/10 11:07:06;;;;;;;28.00;26.20;;;28.40;97.70;;;;;;4922137;29;20044;-75
2023/07/10 11:09:49;;;;;;;28.98;27.27;;;28.70;97.20;;;;;;4935484;29;20043;-75
2023/07/10 11:12:30;;;;;;;29.58;27.83;;;28.80;96.60;;;;;;4919376;29;20036;-75
2023/07/10 11:14:59;;;;;;;30.98;29.15;;;28.90;95.80;;;;;;4919526;29;20050;-75
2023/07/10 11:17:25;;;;;;;39.83;37.53;;;28.90;95.60;;;;;;4899745;28;20140;-75
2023/07/10 11:19:52;;;;;;;37.45;35.45;;;29.00;95.20;;;;;;4900566;29;20028;-75
2023/07/10 11:22:22;;;;;;;34.00;31.95;;;29.00;94.90;;;;;;4926953;28;20047;-75
2023/07/10 11:24:49;;;;;;;41.90;39.60;;;29.10;95.40;;;;;;4995024;28;20038;-76
2023/07/10 11:27:28;;;;;;;48.92;46.03;;;29.10;94.80;;;;;;4992949;28;20435;-75
2023/07/10 11:30:06;;;;;;;40.70;38.13;;;29.30;94.10;;;;;;4993956;28;20030;-75
2023/07/10 11:32:34;;;;;;;63.55;60.15;;;29.40;94.70;;;;;;5012106;28;20030;-75
2023/07/10 11:35:17;;;;;;;116.97;110.97;;;29.50;94.50;;;;;;5029877;28;20030;-75
2023/07/10 11:37:49;;;;;;;49.67;46.95;;;29.50;94.20;;;;;;4994650;28;20034;-75
2023/07/10 11:40:27;;;;;;;47.15;44.22;;;29.40;92.60;;;;;;5004845;28;20418;-75
2023/07/10 11:42:58;;;;;;;51.10;48.08;;;29.30;93.20;;;;;;5014268;28;20479;-75
2023/07/10 11:45:33;;;;;;;34.13;31.77;;;29.30;93.40;;;;;;5028302;28;20041;-75
2023/07/10 11:47:59;;;;;;;34.42;32.30;;;29.50;94.30;;;;;;5024451;28;20046;-75
2023/07/10 11:50:27;;;;;;;46.97;44.17;;;29.60;94.50;;;;;;4979265;28;20073;-74
2023/07/10 11:53:21;;;;;;;45.60;43.00;;;29.60;93.70;;;;;;5014217;28;20034;-75
2023/07/10 11:56:02;;;;;;;30.75;28.70;;;29.60;93.20;;;;;;5012395;28;20030;-75
2023/07/10 11:58:33;;;;;;;41.85;39.33;;;29.60;93.70;;;;;;5014249;28;20392;-75
2023/07/10 12:01:17;;;;;;;49.90;47.20;;;29.60;93.70;;;;;;5028371;28;20033;-75
2023/07/10 12:03:43;;;;;;;49.15;46.33;;;29.70;92.90;;;;;;5029186;28;20026;-74
2023/07/10 12:06:23;;;;;;;52.85;49.72;;;29.70;92.50;;;;;;5028862;28;20383;-75
2023/07/10 12:08:50;;;;;;;;;;;29.80;92.30;;;;;;5013841;28;20037;-75
2023/07/10 12:11:26;;;;;;;49.15;46.30;;;29.90;93.00;;;;;;5028827;28;20365;-75
2023/07/10 12:13:52;;;;;;;43.20;40.55;;;29.90;92.20;;;;;;5013730;28;20030;-75
2023/07/10 12:16:19;;;;;;;44.70;42.22;;;29.90;92.70;;;;;;5013120;28;20026;-75
2023/07/10 12:18:45;;;;;;;52.97;50.17;;;29.80;92.20;;;;;;5028886;28;20030;-75
2023/07/10 12:21:21;;;;;;;56.05;52.97;;;29.90;92.20;;;;;;5028532;28;20041;-75
2023/07/10 12:24:02;;;;;;;55.40;52.08;;;29.80;91.80;;;;;;5028385;28;20040;-75
2023/07/10 12:26:28;;;;;;;45.28;42.70;;;29.70;92.00;;;;;;5011829;28;20399;-75
2023/07/10 12:28:55;;;;;;;53.50;50.63;;;29.90;92.60;;;;;;5012566;28;20376;-76
2023/07/10 12:31:21;;;;;;;55.38;52.33;;;29.90;91.90;;;;;;5027867;28;20037;-75
2023/07/10 12:33:48;;;;;;;53.15;50.25;;;30.00;91.40;;;;;;5028559;28;20037;-75
2023/07/10 12:36:23;;;;;;;48.97;46.17;;;30.10;91.60;;;;;;5022209;28;20026;-75
2023/07/10 12:38:50;;;;;;;60.20;57.10;;;30.20;91.80;;;;;;4993503;28;20053;-75